createdAt,value
2022-09-11T00:00:37.277Z,97299.94
2022-09-11T00:02:39.870Z,97298.06
2022-09-11T00:04:43.798Z,97302.47
2022-09-11T00:06:46.424Z,97315.63
2022-09-11T00:08:49.475Z,97310.19
2022-09-11T00:10:52.121Z,97315.28
2022-09-11T00:12:58.149Z,97315.28
2022-09-11T00:15:00.808Z,97310.34
2022-09-11T00:17:03.443Z,97308.78
2022-09-11T00:19:08.312Z,97308.88
2022-09-11T00:21:12.167Z,97307.06
2022-09-11T00:23:17.541Z,97318.25
2022-09-11T00:25:20.146Z,97313.28
2022-09-11T00:27:22.810Z,97306.06
2022-09-11T00:29:25.337Z,97299.69
2022-09-11T00:31:29.865Z,97303.31
2022-09-11T00:33:33.400Z,97308.94
2022-09-11T00:35:36.007Z,97309.03
2022-09-11T00:37:39.928Z,97304.34
2022-09-11T00:39:42.977Z,97300.59
2022-09-11T00:41:46.173Z,97304.09
2022-09-11T00:43:55.248Z,97313.75
2022-09-11T00:46:00.949Z,97311.88
2022-09-11T00:48:05.259Z,97315.47
2022-09-11T00:50:13.289Z,97308.13
2022-09-11T00:52:19.189Z,97317.91
2022-09-11T00:54:27.902Z,97307.63
2022-09-11T00:56:33.114Z,97303.31
2022-09-11T00:58:40.487Z,97299.00
2022-09-11T01:00:45.328Z,97299.94
2022-09-11T01:02:50.432Z,97294.41
2022-09-11T01:04:53.430Z,97296.38
2022-09-11T01:06:58.267Z,97295.53
2022-09-11T01:09:01.243Z,97296.66
2022-09-11T01:11:20.577Z,97293.25
2022-09-11T01:13:33.022Z,97296.72
2022-09-11T01:15:42.055Z,97296.63
2022-09-11T01:17:53.939Z,97292.69
2022-09-11T01:20:36.536Z,97290.06
2022-09-11T01:22:58.327Z,97287.06
2022-09-11T01:25:10.561Z,97287.44
2022-09-11T01:27:39.709Z,97287.44
2022-09-11T01:29:51.507Z,97281.81
2022-09-11T01:31:57.494Z,97288.00
2022-09-11T01:34:05.891Z,97293.16
2022-09-11T01:36:11.797Z,97285.94
2022-09-11T01:38:19.260Z,97281.91
2022-09-11T01:40:27.143Z,97282.47
2022-09-11T01:42:35.874Z,97279.28
2022-09-11T01:44:42.529Z,97282.16
2022-09-11T01:46:49.776Z,97278.53
2022-09-11T01:48:58.304Z,97285.28
2022-09-11T01:51:03.435Z,97287.16
2022-09-11T01:53:09.673Z,97282.56
2022-09-11T01:55:19.029Z,97287.25
2022-09-11T01:57:26.452Z,97284.63
2022-09-11T01:59:37.408Z,97287.25
2022-09-11T02:01:47.604Z,97283.97
2022-09-11T02:03:54.387Z,97290.53
2022-09-11T02:06:01.336Z,97289.50
2022-09-11T02:08:09.347Z,97288.00
2022-09-11T02:10:17.494Z,97287.06
2022-09-11T02:12:25.219Z,97287.84
2022-09-11T02:14:36.552Z,97291.28
2022-09-11T02:16:47.720Z,97287.16
2022-09-11T02:18:59.847Z,97285.09
2022-09-11T02:21:02.411Z,97288.66
2022-09-11T02:23:07.031Z,97290.63
2022-09-11T02:25:13.738Z,97292.53
2022-09-11T02:27:19.870Z,97299.75
2022-09-11T02:29:24.376Z,97305.69
2022-09-11T02:31:28.769Z,97292.13
2022-09-11T02:33:33.426Z,97296.53
2022-09-11T02:35:45.303Z,97297.69
2022-09-11T02:37:50.622Z,97302.47
2022-09-11T02:40:41.615Z,97298.72
2022-09-11T02:42:57.201Z,97304.28
2022-09-11T02:45:10.828Z,97304.06
2022-09-11T02:47:25.355Z,97298.72
2022-09-11T02:49:40.561Z,97308.47
2022-09-11T02:51:55.890Z,97304.72
2022-09-11T02:54:06.935Z,97306.59
2022-09-11T02:56:16.280Z,97308.47
2022-09-11T02:58:23.446Z,97310.75
2022-09-11T03:00:26.223Z,97312.44
2022-09-11T03:02:31.634Z,97310.75
2022-09-11T03:04:34.986Z,97318.16
2022-09-11T03:06:37.554Z,97314.69
2022-09-11T03:08:40.998Z,97315.91
2022-09-11T03:10:46.638Z,97316.09
2022-09-11T03:12:49.164Z,97317.78
2022-09-11T03:14:51.988Z,97322.19
2022-09-11T03:16:56.022Z,97319.38
2022-09-11T03:18:59.925Z,97325.63
2022-09-11T03:21:03.649Z,97326.50
2022-09-11T03:23:10.952Z,97321.50
2022-09-11T03:25:15.056Z,97316.75
2022-09-11T03:27:18.167Z,97319.06
2022-09-11T03:29:20.721Z,97318.41
2022-09-11T03:31:23.338Z,97317.19
2022-09-11T03:33:26.068Z,97314.84
2022-09-11T03:35:29.985Z,97311.59
2022-09-11T03:37:32.563Z,97316.09
2022-09-11T03:39:35.243Z,97316.63
2022-09-11T03:41:37.924Z,97318.34
2022-09-11T03:43:40.564Z,97325.69
2022-09-11T03:45:44.568Z,97317.78
2022-09-11T03:47:47.177Z,97316.00
2022-09-11T03:49:49.753Z,97316.47
2022-09-11T03:51:53.629Z,97323.88
2022-09-11T03:53:56.137Z,97322.97
2022-09-11T03:55:58.651Z,97321.59
2022-09-11T03:58:01.291Z,97323.94
2022-09-11T04:00:06.444Z,97325.13
2022-09-11T04:02:09.130Z,97327.41
2022-09-11T04:04:11.744Z,97336.41
2022-09-11T04:06:14.279Z,97327.66
2022-09-11T04:08:18.182Z,97335.31
2022-09-11T04:10:21.197Z,97331.72
2022-09-11T04:12:23.819Z,97325.13
2022-09-11T04:14:26.425Z,97327.41
2022-09-11T04:16:32.700Z,97333.69
2022-09-11T04:18:38.176Z,97335.97
2022-09-11T04:20:40.700Z,97325.56
2022-09-11T04:22:43.277Z,97332.59
2022-09-11T04:24:47.153Z,97325.56
2022-09-11T04:26:49.976Z,97331.25
2022-09-11T04:28:52.586Z,97328.34
2022-09-11T04:30:57.081Z,97333.69
2022-09-11T04:32:59.693Z,97333.59
2022-09-11T04:35:03.538Z,97334.34
2022-09-11T04:37:06.071Z,97330.22
2022-09-11T04:39:08.581Z,97323.25
2022-09-11T04:41:12.782Z,97339.78
2022-09-11T04:43:17.689Z,97334.72
2022-09-11T04:45:20.206Z,97338.34
2022-09-11T04:47:22.737Z,97340.13
2022-09-11T04:49:25.409Z,97353.94
2022-09-11T04:51:30.197Z,97347.78
2022-09-11T04:53:32.991Z,97349.44
2022-09-11T04:55:35.715Z,97347.41
2022-09-11T04:57:39.684Z,97352.41
2022-09-11T04:59:42.289Z,97355.84
2022-09-11T05:01:46.371Z,97348.53
2022-09-11T05:03:49.377Z,97361.81
2022-09-11T05:05:51.896Z,97360.22
2022-09-11T05:07:54.389Z,97363.34
2022-09-11T05:09:56.894Z,97362.50
2022-09-11T05:11:59.453Z,97369.47
2022-09-11T05:14:03.919Z,97375.91
2022-09-11T05:16:09.116Z,97370.66
2022-09-11T05:18:12.443Z,97375.06
2022-09-11T05:20:16.595Z,97377.69
2022-09-11T05:22:19.189Z,97381.59
2022-09-11T05:24:21.752Z,97382.53
2022-09-11T05:26:25.955Z,97371.19
2022-09-11T05:28:29.359Z,97376.53
2022-09-11T05:30:33.286Z,97391.38
2022-09-11T05:32:35.814Z,97391.00
2022-09-11T05:34:38.344Z,97396.28
2022-09-11T05:36:41.449Z,97389.25
2022-09-11T05:38:44.335Z,97397.13
2022-09-11T05:40:48.294Z,97402.19
2022-09-11T05:42:50.860Z,97397.81
2022-09-11T05:44:53.380Z,97403.06
2022-09-11T05:46:58.075Z,97398.03
2022-09-11T05:49:00.628Z,97411.19
2022-09-11T05:51:06.947Z,97408.41
2022-09-11T05:53:09.610Z,97406.88
2022-09-11T05:55:12.138Z,97411.03
2022-09-11T05:57:14.701Z,97412.63
2022-09-11T05:59:17.465Z,97416.69
2022-09-11T06:01:21.432Z,97418.47
2022-09-11T06:03:26.401Z,97412.28
2022-09-11T06:05:29.082Z,97420.84
2022-09-11T06:07:31.618Z,97418.91
2022-09-11T06:09:34.331Z,97417.59
2022-09-11T06:11:37.298Z,97426.34
2022-09-11T06:13:41.894Z,97427.97
2022-09-11T06:15:47.163Z,97428.88
2022-09-11T06:17:50.232Z,97432.00
2022-09-11T06:19:54.447Z,97434.81
2022-09-11T06:21:57.403Z,97438.38
2022-09-11T06:23:59.943Z,97440.25
2022-09-11T06:26:06.537Z,97440.06
2022-09-11T06:28:09.105Z,97434.13
2022-09-11T06:30:13.353Z,97442.78
2022-09-11T06:32:16.046Z,97439.06
2022-09-11T06:34:19.725Z,97451.72
2022-09-11T06:36:26.717Z,97446.75
2022-09-11T06:38:29.668Z,97452.78
2022-09-11T06:40:32.198Z,97455.34
2022-09-11T06:42:34.793Z,97452.97
2022-09-11T06:44:37.424Z,97459.81
2022-09-11T06:46:40.511Z,97455.34
2022-09-11T06:48:45.181Z,97460.44
2022-09-11T06:50:47.710Z,97463.41
2022-09-11T06:52:52.340Z,97465.78
2022-09-11T06:54:54.972Z,97465.69
2022-09-11T06:56:57.545Z,97470.13
2022-09-11T06:59:00.210Z,97472.47
2022-09-11T07:01:04.615Z,97466.84
2022-09-11T07:03:07.367Z,97471.28
2022-09-11T07:05:10.944Z,97467.28
2022-09-11T07:07:13.461Z,97468.63
2022-09-11T07:09:17.484Z,97463.22
2022-09-11T07:11:20.883Z,97461.34
2022-09-11T07:13:24.615Z,97460.91
2022-09-11T07:15:27.174Z,97467.81
2022-09-11T07:17:29.780Z,97468.38
2022-09-11T07:19:33.560Z,97470.75
2022-09-11T07:21:37.199Z,97465.31
2022-09-11T07:23:41.037Z,97469.34
2022-09-11T07:25:45.707Z,97468.63
2022-09-11T07:27:48.246Z,97469.72
2022-09-11T07:29:50.785Z,97467.84
2022-09-11T07:31:55.805Z,97467.50
2022-09-11T07:33:58.457Z,97466.56
2022-09-11T07:36:00.944Z,97473.16
2022-09-11T07:38:04.020Z,97475.53
2022-09-11T07:40:07.339Z,97479.69
2022-09-11T07:42:12.019Z,97480.59
2022-09-11T07:44:15.263Z,97486.03
2022-09-11T07:46:18.053Z,97486.34
2022-09-11T07:48:20.614Z,97492.22
2022-09-11T07:50:24.293Z,97495.41
2022-09-11T07:52:26.928Z,97498.22
2022-09-11T07:54:30.090Z,97496.44
2022-09-11T07:56:34.642Z,97503.47
2022-09-11T07:58:40.465Z,97500.41
2022-09-11T08:00:43.035Z,97503.03
2022-09-11T08:02:45.637Z,97503.88
2022-09-11T08:04:48.282Z,97502.25
2022-09-11T08:06:50.822Z,97505.56
2022-09-11T08:08:54.445Z,97504.47
2022-09-11T08:10:57.148Z,97506.91
2022-09-11T08:13:00.485Z,97501.44
2022-09-11T08:15:04.731Z,97504.06
2022-09-11T08:17:07.354Z,97508.00
2022-09-11T08:19:18.048Z,97505.69
2022-09-11T08:21:21.407Z,97507.75
2022-09-11T08:23:23.903Z,97505.59
2022-09-11T08:25:28.643Z,97509.25
2022-09-11T08:27:32.164Z,97510.28
2022-09-11T08:29:34.698Z,97520.06
2022-09-11T08:31:38.620Z,97520.81
2022-09-11T08:33:41.245Z,97514.59
2022-09-11T08:35:45.339Z,97525.13
2022-09-11T08:37:51.595Z,97516.13
2022-09-11T08:39:56.984Z,97516.59
2022-09-11T08:42:03.753Z,97513.69
2022-09-11T08:44:14.172Z,97510.69
2022-09-11T08:46:17.039Z,97515.59
2022-09-11T08:48:30.172Z,97520.63
2022-09-11T08:50:36.896Z,97517.13
2022-09-11T08:52:41.349Z,97522.75
2022-09-11T08:54:47.505Z,97519.00
2022-09-11T08:56:52.127Z,97528.53
2022-09-11T08:59:13.414Z,97523.31
2022-09-11T09:01:27.585Z,97523.16
2022-09-11T09:03:53.679Z,97522.31
2022-09-11T09:06:00.691Z,97523.06
2022-09-11T09:08:21.414Z,97523.97
2022-09-11T09:10:37.987Z,97524.84
2022-09-11T09:12:48.597Z,97528.44
2022-09-11T09:15:10.114Z,97528.22
2022-09-11T09:17:16.906Z,97528.03
2022-09-11T09:19:26.514Z,97526.50
2022-09-11T09:21:35.989Z,97523.59
2022-09-11T09:23:44.352Z,97529.13
2022-09-11T09:25:49.084Z,97532.22
2022-09-11T09:27:56.783Z,97528.56
2022-09-11T09:30:05.742Z,97525.50
2022-09-11T09:32:15.099Z,97530.63
2022-09-11T09:34:20.433Z,97530.63
2022-09-11T09:36:31.283Z,97521.94
2022-09-11T09:38:33.840Z,97531.88
2022-09-11T09:40:38.622Z,97532.19
2022-09-11T09:42:59.739Z,97529.91
2022-09-11T09:45:36.928Z,97531.44
2022-09-11T09:47:44.491Z,97526.00
2022-09-11T09:49:47.925Z,97529.00
2022-09-11T09:51:55.053Z,97529.75
2022-09-11T09:54:02.082Z,97522.97
2022-09-11T09:56:06.271Z,97537.31
2022-09-11T09:58:08.791Z,97532.97
2022-09-11T10:00:17.260Z,97535.50
2022-09-11T10:02:39.030Z,97530.75
2022-09-11T10:04:41.675Z,97529.69
2022-09-11T10:06:45.951Z,97535.72
2022-09-11T10:08:49.875Z,97538.66
2022-09-11T10:10:58.167Z,97536.84
2022-09-11T10:13:18.630Z,97527.91
2022-09-11T10:15:23.837Z,97533.81
2022-09-11T10:17:33.267Z,97530.13
2022-09-11T10:19:39.293Z,97531.88
2022-09-11T10:21:41.843Z,97524.44
2022-09-11T10:23:47.491Z,97527.47
2022-09-11T10:25:51.963Z,97530.25
2022-09-11T10:28:03.970Z,97523.97
2022-09-11T10:30:07.587Z,97519.84
2022-09-11T10:32:18.682Z,97527.38
2022-09-11T10:34:24.671Z,97528.31
2022-09-11T10:36:28.873Z,97521.81
2022-09-11T10:38:37.016Z,97520.19
2022-09-11T10:40:47.268Z,97518.31
2022-09-11T10:42:54.367Z,97521.69
2022-09-11T10:45:08.558Z,97525.19
2022-09-11T10:47:17.819Z,97516.91
2022-09-11T10:49:21.784Z,97523.97
2022-09-11T10:51:26.039Z,97513.31
2022-09-11T10:53:29.300Z,97521.22
2022-09-11T10:55:35.844Z,97513.03
2022-09-11T10:57:45.978Z,97518.50
2022-09-11T11:00:04.161Z,97524.28
2022-09-11T11:02:20.429Z,97519.56
2022-09-11T11:04:23.580Z,97515.69
2022-09-11T11:06:42.589Z,97518.50
2022-09-11T11:09:16.321Z,97510.28
2022-09-11T11:11:32.435Z,97509.41
2022-09-11T11:13:47.890Z,97507.75
2022-09-11T11:16:07.862Z,97504.84
2022-09-11T11:18:23.574Z,97496.38
2022-09-11T11:20:34.708Z,97508.22
2022-09-11T11:22:56.129Z,97505.38
2022-09-11T11:25:09.358Z,97512.38
2022-09-11T11:27:37.822Z,97510.59
2022-09-11T11:30:04.602Z,97506.50
2022-09-11T11:32:19.789Z,97506.28
2022-09-11T11:34:48.275Z,97514.72
2022-09-11T11:36:55.944Z,97512.63
2022-09-11T11:39:01.978Z,97505.09
2022-09-11T11:41:10.113Z,97512.94
2022-09-11T11:43:17.363Z,97505.97
2022-09-11T11:45:24.653Z,97499.44
2022-09-11T11:47:33.551Z,97497.22
2022-09-11T11:49:48.958Z,97493.91
2022-09-11T11:51:57.144Z,97495.78
2022-09-11T11:54:05.116Z,97497.03
2022-09-11T11:56:14.850Z,97504.88
2022-09-11T11:58:28.018Z,97493.97
2022-09-11T12:00:33.875Z,97499.25
2022-09-11T12:02:46.219Z,97496.63
2022-09-11T12:04:54.850Z,97502.09
2022-09-11T12:06:57.618Z,97502.34
2022-09-11T12:09:09.845Z,97501.06
2022-09-11T12:11:15.467Z,97497.28
2022-09-11T12:13:20.612Z,97495.81
2022-09-11T12:15:25.153Z,97501.31
2022-09-11T12:17:29.777Z,97494.75
2022-09-11T12:19:33.775Z,97494.97
2022-09-11T12:21:41.423Z,97495.84
2022-09-11T12:24:15.530Z,97499.75
2022-09-11T12:26:20.117Z,97494.47
2022-09-11T12:28:26.178Z,97497.22
2022-09-11T12:30:30.767Z,97493.09
2022-09-11T12:32:46.944Z,97498.38
2022-09-11T12:35:04.771Z,97498.56
2022-09-11T12:37:13.391Z,97491.59
2022-09-11T12:39:24.026Z,97494.56
2022-09-11T12:41:30.098Z,97496.03
2022-09-11T12:43:48.739Z,97490.97
2022-09-11T12:45:51.743Z,97494.00
2022-09-11T12:47:54.474Z,97488.19
2022-09-11T12:50:06.700Z,97481.41
2022-09-11T12:52:25.851Z,97489.41
2022-09-11T12:54:31.784Z,97481.94
2022-09-11T12:56:36.019Z,97484.31
2022-09-11T12:58:41.997Z,97482.25
2022-09-11T13:00:47.585Z,97466.47
2022-09-11T13:02:55.260Z,97481.41
2022-09-11T13:04:58.947Z,97479.50
2022-09-11T13:07:05.538Z,97475.28
2022-09-11T13:09:19.778Z,97478.41
2022-09-11T13:11:43.355Z,97478.34
2022-09-11T13:13:46.893Z,97484.31
2022-09-11T13:15:52.352Z,97476.84
2022-09-11T13:17:55.069Z,97473.94
2022-09-11T13:20:22.456Z,97470.97
2022-09-11T13:22:27.521Z,97478.28
2022-09-11T13:24:34.137Z,97468.16
2022-09-11T13:26:36.701Z,97466.69
2022-09-11T13:28:46.171Z,97465.22
2022-09-11T13:30:56.630Z,97468.19
2022-09-11T13:33:06.435Z,97472.75
2022-09-11T13:35:16.305Z,97474.56
2022-09-11T13:37:32.864Z,97469.91
2022-09-11T13:39:40.998Z,97467.69
2022-09-11T13:41:44.718Z,97458.03
2022-09-11T13:43:51.662Z,97459.50
2022-09-11T13:46:24.842Z,97461.25
2022-09-11T13:48:27.370Z,97460.09
2022-09-11T13:50:29.937Z,97462.38
2022-09-11T13:52:35.183Z,97462.34
2022-09-11T13:54:44.237Z,97459.72
2022-09-11T13:57:06.467Z,97456.44
2022-09-11T13:59:38.199Z,97457.19
2022-09-11T14:01:53.890Z,97450.09
2022-09-11T14:03:57.123Z,97452.97
2022-09-11T14:06:01.355Z,97454.31
2022-09-11T14:08:07.567Z,97446.56
2022-09-11T14:10:22.014Z,97439.81
2022-09-11T14:12:25.038Z,97446.09
2022-09-11T14:14:29.908Z,97438.44
2022-09-11T14:16:35.497Z,97437.34
2022-09-11T14:18:43.461Z,97436.66
2022-09-11T14:20:49.286Z,97437.91
2022-09-11T14:22:56.510Z,97432.69
2022-09-11T14:25:05.687Z,97430.97
2022-09-11T14:27:37.713Z,97426.41
2022-09-11T14:29:40.958Z,97428.94
2022-09-11T14:31:44.543Z,97421.81
2022-09-11T14:33:47.047Z,97421.53
2022-09-11T14:35:50.243Z,97414.28
2022-09-11T14:37:52.856Z,97420.00
2022-09-11T14:39:59.013Z,97422.38
2022-09-11T14:42:05.095Z,97414.28
2022-09-11T14:44:13.145Z,97419.31
2022-09-11T14:46:16.096Z,97414.28
2022-09-11T14:48:18.790Z,97417.66
2022-09-11T14:50:21.781Z,97415.69
2022-09-11T14:52:27.001Z,97416.81
2022-09-11T14:54:31.681Z,97414.00
2022-09-11T14:56:34.421Z,97412.44
2022-09-11T14:58:36.965Z,97412.59
2022-09-11T15:00:41.008Z,97411.19
2022-09-11T15:02:43.588Z,97409.53
2022-09-11T15:04:46.903Z,97408.69
2022-09-11T15:06:51.420Z,97409.53
2022-09-11T15:08:53.931Z,97407.00
2022-09-11T15:10:56.473Z,97399.97
2022-09-11T15:13:02.826Z,97393.25
2022-09-11T15:15:06.256Z,97398.19
2022-09-11T15:17:12.637Z,97401.69
2022-09-11T15:19:15.899Z,97399.00
2022-09-11T15:21:18.418Z,97397.31
2022-09-11T15:23:20.982Z,97401.25
2022-09-11T15:25:24.381Z,97398.03
2022-09-11T15:27:26.995Z,97392.72
2022-09-11T15:29:31.451Z,97397.63
2022-09-11T15:31:34.400Z,97390.03
2022-09-11T15:33:38.346Z,97389.47
2022-09-11T15:35:40.880Z,97391.44
2022-09-11T15:37:45.570Z,97386.38
2022-09-11T15:39:48.135Z,97392.97
2022-09-11T15:41:51.139Z,97390.72
2022-09-11T15:43:53.720Z,97387.78
2022-09-11T15:45:57.258Z,97392.72
2022-09-11T15:48:00.217Z,97387.94
2022-09-11T15:50:05.584Z,97387.47
2022-09-11T15:52:08.165Z,97386.84
2022-09-11T15:54:10.998Z,97380.50
2022-09-11T15:56:16.265Z,97382.16
2022-09-11T15:58:18.772Z,97380.25
2022-09-11T16:00:21.979Z,97390.56
2022-09-11T16:02:24.714Z,97386.75
2022-09-11T16:04:31.589Z,97389.22
2022-09-11T16:06:38.912Z,97386.59
2022-09-11T16:08:41.425Z,97381.25
2022-09-11T16:10:43.989Z,97382.88
2022-09-11T16:12:47.012Z,97388.81
2022-09-11T16:14:50.267Z,97384.97
2022-09-11T16:16:54.391Z,97387.28
2022-09-11T16:18:58.511Z,97387.69
2022-09-11T16:21:01.345Z,97389.84
2022-09-11T16:23:05.403Z,97391.06
2022-09-11T16:25:08.580Z,97384.31
2022-09-11T16:27:11.839Z,97379.25
2022-09-11T16:29:17.929Z,97383.00
2022-09-11T16:31:21.023Z,97377.69
2022-09-11T16:33:24.215Z,97375.41
2022-09-11T16:35:27.254Z,97380.00
2022-09-11T16:37:33.944Z,97373.63
2022-09-11T16:39:37.856Z,97380.13
2022-09-11T16:41:40.967Z,97380.78
2022-09-11T16:43:45.864Z,97388.94
2022-09-11T16:45:51.357Z,97385.97
2022-09-11T16:47:53.900Z,97385.63
2022-09-11T16:50:12.095Z,97383.44
2022-09-11T16:52:15.213Z,97383.09
2022-09-11T16:54:17.987Z,97378.28
2022-09-11T16:56:23.543Z,97378.63
2022-09-11T16:58:26.093Z,97380.00
2022-09-11T17:00:28.936Z,97372.47
2022-09-11T17:02:31.488Z,97372.84
2022-09-11T17:04:34.267Z,97377.56
2022-09-11T17:06:36.810Z,97379.72
2022-09-11T17:08:39.966Z,97374.75
2022-09-11T17:10:44.821Z,97376.09
2022-09-11T17:12:52.833Z,97375.59
2022-09-11T17:14:58.057Z,97378.63
2022-09-11T17:17:00.632Z,97374.63
2022-09-11T17:19:03.245Z,97368.25
2022-09-11T17:21:07.815Z,97375.25
2022-09-11T17:23:11.121Z,97368.03
2022-09-11T17:25:16.133Z,97369.44
2022-09-11T17:27:18.688Z,97371.63
2022-09-11T17:29:22.535Z,97368.72
2022-09-11T17:31:25.129Z,97372.69
2022-09-11T17:33:27.761Z,97371.34
2022-09-11T17:35:31.684Z,97372.63
2022-09-11T17:37:34.390Z,97361.56
2022-09-11T17:39:37.218Z,97371.53
2022-09-11T17:41:39.783Z,97367.44
2022-09-11T17:43:42.400Z,97368.84
2022-09-11T17:45:46.535Z,97371.38
2022-09-11T17:47:49.025Z,97382.06
2022-09-11T17:49:51.680Z,97385.84
2022-09-11T17:51:54.507Z,97377.22
2022-09-11T17:53:59.149Z,97387.78
2022-09-11T17:56:02.301Z,97386.16
2022-09-11T17:58:04.887Z,97386.19
2022-09-11T18:00:08.570Z,97380.78
2022-09-11T18:02:14.851Z,97381.91
2022-09-11T18:04:18.280Z,97382.97
2022-09-11T18:06:28.324Z,97380.78
2022-09-11T18:08:34.498Z,97385.31
2022-09-11T18:10:37.093Z,97382.91
2022-09-11T18:12:39.642Z,97383.56
2022-09-11T18:14:43.796Z,97385.97
2022-09-11T18:16:47.708Z,97388.63
2022-09-11T18:18:51.784Z,97392.47
2022-09-11T18:20:55.429Z,97389.31
2022-09-11T18:22:59.643Z,97397.63
2022-09-11T18:25:02.306Z,97395.97
2022-09-11T18:27:06.646Z,97390.97
2022-09-11T18:29:11.737Z,97395.56
2022-09-11T18:31:14.356Z,97393.31
2022-09-11T18:33:17.443Z,97396.06
2022-09-11T18:35:21.363Z,97397.31
2022-09-11T18:37:23.892Z,97398.41
2022-09-11T18:39:26.653Z,97395.00
2022-09-11T18:41:31.254Z,97397.13
2022-09-11T18:43:33.750Z,97399.25
2022-09-11T18:45:36.767Z,97408.31
2022-09-11T18:47:39.882Z,97402.28
2022-09-11T18:49:42.515Z,97400.72
2022-09-11T18:51:46.556Z,97395.44
2022-09-11T18:53:52.032Z,97399.00
2022-09-11T18:56:01.756Z,97400.81
2022-09-11T18:58:05.594Z,97400.94
2022-09-11T19:00:13.745Z,97396.47
2022-09-11T19:02:16.275Z,97395.72
2022-09-11T19:04:20.224Z,97388.88
2022-09-11T19:06:25.032Z,97384.44
2022-09-11T19:08:28.984Z,97396.78
2022-09-11T19:10:31.785Z,97395.94
2022-09-11T19:12:34.414Z,97399.66
2022-09-11T19:14:37.767Z,97400.56
2022-09-11T19:16:41.192Z,97402.38
2022-09-11T19:18:43.741Z,97403.31
2022-09-11T19:20:46.276Z,97403.53
2022-09-11T19:22:49.239Z,97413.53
2022-09-11T19:24:53.296Z,97410.13
2022-09-11T19:26:56.517Z,97409.81
2022-09-11T19:29:00.490Z,97406.41
2022-09-11T19:31:03.688Z,97411.81
2022-09-11T19:33:07.779Z,97421.28
2022-09-11T19:35:10.385Z,97414.50
2022-09-11T19:37:13.794Z,97413.94
2022-09-11T19:39:16.477Z,97416.78
2022-09-11T19:41:23.089Z,97422.25
2022-09-11T19:43:25.885Z,97424.13
2022-09-11T19:45:28.818Z,97421.91
2022-09-11T19:47:31.483Z,97414.09
2022-09-11T19:49:34.044Z,97420.50
2022-09-11T19:51:38.499Z,97422.38
2022-09-11T19:53:42.165Z,97422.50
2022-09-11T19:55:44.951Z,97417.53
2022-09-11T19:57:48.790Z,97414.13
2022-09-11T19:59:51.837Z,97414.22
2022-09-11T20:01:54.416Z,97420.53
2022-09-11T20:03:58.174Z,97422.44
2022-09-11T20:06:00.881Z,97419.16
2022-09-11T20:08:04.005Z,97422.81
2022-09-11T20:10:09.783Z,97421.13
2022-09-11T20:12:12.377Z,97421.25
2022-09-11T20:14:16.503Z,97419.53
2022-09-11T20:16:23.005Z,97426.03
2022-09-11T20:18:26.125Z,97422.63
2022-09-11T20:20:29.286Z,97416.81
2022-09-11T20:22:31.851Z,97419.66
2022-09-11T20:24:34.399Z,97415.22
2022-09-11T20:26:37.316Z,97418.88
2022-09-11T20:28:40.188Z,97416.44
2022-09-11T20:30:44.181Z,97415.66
2022-09-11T20:32:46.999Z,97417.38
2022-09-11T20:34:49.751Z,97416.44
2022-09-11T20:36:52.364Z,97415.88
2022-09-11T20:38:56.499Z,97419.53
2022-09-11T20:41:00.607Z,97416.16
2022-09-11T20:43:03.229Z,97413.59
2022-09-11T20:45:06.692Z,97419.81
2022-09-11T20:47:13.311Z,97422.56
2022-09-11T20:49:16.192Z,97409.56
2022-09-11T20:51:18.789Z,97412.38
2022-09-11T20:53:22.957Z,97407.22
2022-09-11T20:55:25.517Z,97404.22
2022-09-11T20:57:28.036Z,97402.78
2022-09-11T20:59:30.699Z,97403.94
2022-09-11T21:01:33.440Z,97399.69
2022-09-11T21:03:37.392Z,97401.66
2022-09-11T21:05:40.295Z,97393.97
2022-09-11T21:07:42.977Z,97401.19
2022-09-11T21:09:46.176Z,97397.72
2022-09-11T21:11:48.892Z,97403.25
2022-09-11T21:13:51.491Z,97404.28
2022-09-11T21:15:54.126Z,97407.09
2022-09-11T21:17:56.814Z,97403.72
2022-09-11T21:20:00.775Z,97404.47
2022-09-11T21:22:03.297Z,97403.06
2022-09-11T21:24:07.629Z,97402.03
2022-09-11T21:26:11.252Z,97400.56
2022-09-11T21:28:13.924Z,97399.91
2022-09-11T21:30:16.498Z,97396.97
2022-09-11T21:32:19.031Z,97395.72
2022-09-11T21:34:21.690Z,97397.50
2022-09-11T21:36:26.021Z,97396.72
2022-09-11T21:38:29.897Z,97395.84
2022-09-11T21:40:32.580Z,97386.38
2022-09-11T21:42:35.158Z,97395.03
2022-09-11T21:44:37.700Z,97395.19
2022-09-11T21:46:40.255Z,97388.41
2022-09-11T21:48:43.190Z,97397.16
2022-09-11T21:50:45.801Z,97392.50
2022-09-11T21:52:49.672Z,97384.34
2022-09-11T21:54:54.640Z,97390.59
2022-09-11T21:56:57.182Z,97383.75
2022-09-11T21:59:03.261Z,97394.16
2022-09-11T22:01:08.118Z,97390.53
2022-09-11T22:03:12.179Z,97381.97
2022-09-11T22:05:14.811Z,97383.56
2022-09-11T22:07:17.514Z,97387.22
2022-09-11T22:09:21.659Z,97384.66
2022-09-11T22:11:25.904Z,97389.00
2022-09-11T22:13:28.458Z,97385.59
2022-09-11T22:15:31.046Z,97397.91
2022-09-11T22:17:33.696Z,97390.97
2022-09-11T22:19:36.280Z,97396.22
2022-09-11T22:21:39.798Z,97393.50
2022-09-11T22:23:42.417Z,97394.44
2022-09-11T22:25:47.017Z,97394.69
2022-09-11T22:27:49.539Z,97393.00
2022-09-11T22:29:54.050Z,97389.72
2022-09-11T22:31:56.632Z,97392.44
2022-09-11T22:33:59.193Z,97392.44
2022-09-11T22:36:08.332Z,97400.31
2022-09-11T22:38:10.884Z,97389.91
2022-09-11T22:40:13.474Z,97388.38
2022-09-11T22:42:17.430Z,97386.00
2022-09-11T22:44:20.032Z,97391.31
2022-09-11T22:46:23.824Z,97389.06
2022-09-11T22:48:26.940Z,97388.19
2022-09-11T22:50:29.544Z,97392.88
2022-09-11T22:52:32.242Z,97396.53
2022-09-11T22:54:34.942Z,97385.66
2022-09-11T22:56:37.603Z,97389.84
2022-09-11T22:58:41.933Z,97391.13
2022-09-11T23:00:45.667Z,97388.66
2022-09-11T23:02:48.215Z,97388.75
2022-09-11T23:05:04.874Z,97376.63
2022-09-11T23:07:16.929Z,97381.88
2022-09-11T23:09:19.539Z,97382.81
2022-09-11T23:11:22.266Z,97389.16
2022-09-11T23:13:24.827Z,97378.91
2022-09-11T23:15:28.935Z,97378.06
2022-09-11T23:17:31.516Z,97381.47
2022-09-11T23:19:35.276Z,97374.59
2022-09-11T23:21:37.816Z,97373.66
2022-09-11T23:23:42.822Z,97380.09
2022-09-11T23:25:45.656Z,97375.72
2022-09-11T23:27:48.237Z,97366.38
2022-09-11T23:29:50.771Z,97373.41
2022-09-11T23:31:59.746Z,97370.09
2022-09-11T23:34:04.412Z,97370.25
2022-09-11T23:36:07.908Z,97363.31
2022-09-11T23:38:10.469Z,97368.63
2022-09-11T23:40:13.227Z,97364.41
2022-09-11T23:42:15.837Z,97355.09
2022-09-11T23:44:18.916Z,97362.03
2022-09-11T23:46:21.751Z,97362.78
2022-09-11T23:48:25.756Z,97362.47
2022-09-11T23:50:28.304Z,97362.81
2022-09-11T23:52:30.947Z,97361.06
2022-09-11T23:54:33.597Z,97358.59
2022-09-11T23:56:36.180Z,97365.41
2022-09-11T23:58:40.287Z,97357.97
